Peers, Canada
Current Conditions -  °F | °C
As of 11:00 AM on Monday 26 Jan 2015 (Local Time) from CYET Reporting Station
Overcast Overcast  
Wind Chill: 34°   Ceiling: 7500
Heat Index: 34°   Visibility: 9mi
Dew Point: 32°   Wind: 2mph
Humidity: 93%   Direction: NA
Pressure: 29.83"   Gusts: NA
Location:  53.68°N, 115.99°W
Report Text: CYET 261800Z AUTO VRB02KT 9SM OVC075 01/00 A2983 RMK SLP131
Loading
Personal Weather Stations






























Interactive Weather Map New forecast layout! Learn more

10-Day Weather Forecast

Advertisements
Track Severe Weather on mobile